Time;durP1;ratioP1;P1;durP2;ratioP2;P2;SDS_P1;SDS_P2;PMS_P1;PMS_P2;Temp;Humidity;BMP_temperature;BMP_pressure;BME280_temperature;BME280_humidity;BME280_pressure;Samples;Min_cycle;Max_cycle;Signal;HPM_P1;HPM_P2
2021/10/23 00:00:51;;;;;;;8.68;3.95;;;;;;;9.45;71.88;99733.75;2624934;54;20027;-71
2021/10/23 00:03:20;;;;;;;9.50;3.42;;;;;;;9.50;71.49;99733.25;2624855;47;20034;-72
2021/10/23 00:05:50;;;;;;;11.68;4.72;;;;;;;9.51;71.84;99733.13;2624988;54;20041;-72
2021/10/23 00:08:20;;;;;;;11.90;4.10;;;;;;;9.48;71.56;99738.72;2622666;54;20038;-72
2021/10/23 00:10:52;;;;;;;10.20;4.05;;;;;;;9.47;71.89;99731.78;2622486;54;20014;-72
2021/10/23 00:13:22;;;;;;;12.32;4.20;;;;;;;9.46;71.59;99734.56;2624717;54;20039;-72
2021/10/23 00:15:52;;;;;;;9.73;3.67;;;;;;;9.46;71.43;99737.22;2623197;47;20031;-71
2021/10/23 00:18:22;;;;;;;10.13;4.05;;;;;;;9.37;71.63;99745.13;2623729;54;20564;-71
2021/10/23 00:20:51;;;;;;;10.10;4.45;;;;;;;9.37;72.01;99747.75;2624084;54;20534;-71
2021/10/23 00:23:21;;;;;;;10.07;4.07;;;;;;;9.31;71.94;99745.78;2622842;54;20033;-72
2021/10/23 00:25:57;;;;;;;14.07;5.22;;;;;;;9.37;72.08;99744.28;2624431;47;20058;-72
2021/10/23 00:28:27;;;;;;;10.25;4.50;;;;;;;9.38;72.52;99738.84;2624883;46;20034;-72
2021/10/23 00:30:57;;;;;;;13.40;4.35;;;;;;;9.36;72.32;99743.47;2624789;54;20110;-72
2021/10/23 00:33:27;;;;;;;12.90;4.93;;;;;;;9.32;72.18;99743.97;2623907;54;20038;-71
2021/10/23 00:35:57;;;;;;;12.27;4.00;;;;;;;9.35;72.35;99744.47;2624260;54;20034;-72
2021/10/23 00:38:26;;;;;;;7.80;4.28;;;;;;;9.33;72.04;99743.78;2623872;47;20034;-72
2021/10/23 00:40:59;;;;;;;9.20;3.88;;;;;;;9.33;72.33;99743.78;2624282;54;20031;-72
2021/10/23 00:43:28;;;;;;;11.60;3.83;;;;;;;9.35;72.35;99749.75;2624679;54;20025;-72
2021/10/23 00:45:58;;;;;;;11.52;4.57;;;;;;;9.35;72.75;99754.19;2624324;47;20033;-73
2021/10/23 00:48:28;;;;;;;11.10;3.83;;;;;;;9.40;72.67;99752.72;2623639;54;20038;-72
2021/10/23 00:50:58;;;;;;;9.88;4.28;;;;;;;9.40;72.69;99759.81;2623025;39;20563;-72
2021/10/23 00:53:28;;;;;;;8.52;4.13;;;;;;;9.37;72.55;99763.59;2624150;39;20430;-72
2021/10/23 00:56:00;;;;;;;11.38;4.53;;;;;;;9.41;72.67;99766.75;2623451;54;20063;-76
2021/10/23 00:58:30;;;;;;;9.57;4.13;;;;;;;9.42;72.88;99771.03;2624422;54;20031;-72
2021/10/23 01:01:00;;;;;;;11.73;4.15;;;;;;;9.42;72.69;99774.47;2624470;54;20037;-72
2021/10/23 01:03:30;;;;;;;11.63;4.40;;;;;;;9.46;72.51;99766.25;2625121;54;20034;-71
2021/10/23 01:06:00;;;;;;;9.90;4.53;;;;;;;9.39;72.37;99776.66;2624673;54;20026;-71
2021/10/23 01:08:30;;;;;;;10.10;4.57;;;;;;;9.38;72.75;99775.78;2624356;54;20038;-73
2021/10/23 01:11:03;;;;;;;8.07;4.03;;;;;;;9.45;72.54;99769.88;2624488;54;20030;-71
2021/10/23 01:13:32;;;;;;;13.55;3.97;;;;;;;9.46;73.11;99768.88;2624077;47;20041;-72
2021/10/23 01:16:02;;;;;;;11.07;4.78;;;;;;;9.46;72.77;99775.00;2624452;54;20038;-71
2021/10/23 01:18:32;;;;;;;8.95;4.50;;;;;;;9.41;73.01;99772.84;2625323;54;20045;-72
2021/10/23 01:21:05;;;;;;;11.85;5.13;;;;;;;9.40;73.04;99768.56;2625835;39;20489;-71
2021/10/23 01:23:34;;;;;;;14.55;5.07;;;;;;;9.41;73.16;99774.66;2625157;54;20118;-72
2021/10/23 01:26:05;;;;;;;13.88;5.43;;;;;;;9.44;73.21;99774.34;2622636;47;20030;-72
2021/10/23 01:28:35;;;;;;;9.88;5.07;;;;;;;9.41;73.25;99779.94;2621961;47;20035;-72
2021/10/23 01:31:04;;;;;;;11.32;4.93;;;;;;;9.39;73.43;99777.47;2622745;39;20443;-71
2021/10/23 01:33:34;;;;;;;9.00;5.18;;;;;;;9.39;73.04;99780.09;2622499;54;20584;-73
2021/10/23 01:36:16;;;;;;;12.90;5.20;;;;;;;9.39;73.21;99787.19;2622222;54;20022;-72
2021/10/23 01:38:46;;;;;;;12.75;5.30;;;;;;;9.37;73.61;99789.16;2625107;54;20031;-72
2021/10/23 01:41:17;;;;;;;10.60;4.95;;;;;;;9.37;73.29;99786.53;2626089;54;20029;-71
2021/10/23 01:43:47;;;;;;;10.70;4.57;;;;;;;9.36;73.39;99790.16;2625045;54;20034;-72
2021/10/23 01:46:17;;;;;;;12.27;5.10;;;;;;;9.35;73.17;99793.78;2626006;54;20026;-72
2021/10/23 01:48:47;;;;;;;9.52;5.43;;;;;;;9.29;73.33;99791.78;2625471;47;20038;-72
2021/10/23 01:51:19;;;;;;;9.45;5.13;;;;;;;9.32;73.10;99794.91;2625993;54;20030;-72
2021/10/23 01:53:49;;;;;;;9.93;4.75;;;;;;;9.30;73.62;99796.88;2625012;54;20019;-71
2021/10/23 01:56:18;;;;;;;10.50;5.10;;;;;;;9.28;73.54;99805.97;2624892;54;20569;-70
2021/10/23 01:58:48;;;;;;;8.23;4.53;;;;;;;9.28;73.34;99804.13;2625384;54;20033;-70
2021/10/23 02:01:17;;;;;;;9.60;4.53;;;;;;;9.25;73.35;99806.28;2626113;47;20041;-70
2021/10/23 02:03:47;;;;;;;10.25;4.88;;;;;;;9.25;73.66;99804.44;2626125;54;20038;-70
2021/10/23 02:06:19;;;;;;;14.02;4.95;;;;;;;9.26;73.91;99807.91;2627302;54;20026;-69
2021/10/23 02:08:49;;;;;;;10.20;4.95;;;;;;;9.23;73.82;99813.53;2626781;54;20507;-70
2021/10/23 02:11:20;;;;;;;6.85;4.57;;;;;;;9.22;74.07;99815.31;2626284;47;20034;-70
2021/10/23 02:13:50;;;;;;;10.93;4.75;;;;;;;9.21;73.89;99811.03;2627445;54;20027;-69
2021/10/23 02:16:19;;;;;;;9.23;4.97;;;;;;;9.17;74.06;99818.44;2625997;54;20042;-70
2021/10/23 02:18:49;;;;;;;14.05;5.10;;;;;;;9.18;74.01;99816.63;2625328;46;20609;-69
2021/10/23 02:21:21;;;;;;;8.20;5.22;;;;;;;9.18;74.28;99822.75;2626971;47;20030;-70
2021/10/23 02:23:51;;;;;;;8.30;4.63;;;;;;;9.15;74.41;99811.69;2627206;54;20022;-70
2021/10/23 02:26:21;;;;;;;10.90;4.95;;;;;;;9.15;74.23;99814.31;2627145;54;20029;-70
2021/10/23 02:28:50;;;;;;;11.52;5.07;;;;;;;9.11;74.39;99815.63;2627179;54;20038;-69
2021/10/23 02:31:20;;;;;;;10.70;5.30;;;;;;;9.09;74.64;99820.22;2627132;54;20026;-70
2021/10/23 02:33:50;;;;;;;10.43;4.40;;;;;;;9.07;74.29;99819.56;2626910;54;20082;-70
2021/10/23 02:36:22;;;;;;;8.52;5.13;;;;;;;9.04;74.55;99820.69;2625483;54;20038;-71
2021/10/23 02:38:52;;;;;;;10.70;5.15;;;;;;;9.00;74.54;99806.16;2625980;54;20041;-70
2021/10/23 02:41:24;;;;;;;10.30;6.70;;;;;;;8.99;75.05;99812.44;2626726;54;20018;-71
2021/10/23 02:43:54;;;;;;;14.75;6.70;;;;;;;8.98;75.17;99812.56;2626366;47;20030;-69
2021/10/23 02:46:24;;;;;;;13.60;5.35;;;;;;;9.01;74.68;99804.34;2626506;54;20029;-70
2021/10/23 02:48:53;;;;;;;12.65;5.50;;;;;;;9.04;74.79;99810.16;2626378;54;20042;-69
2021/10/23 02:51:26;;;;;;;18.48;5.20;;;;;;;9.08;74.98;99818.56;2626723;54;20031;-70
2021/10/23 02:53:55;;;;;;;7.90;4.53;;;;;;;9.10;74.64;99816.59;2627717;39;20433;-70
2021/10/23 02:56:25;;;;;;;8.05;4.97;;;;;;;9.09;74.33;99807.03;2625902;54;20030;-71
2021/10/23 02:58:55;;;;;;;10.00;5.38;;;;;;;9.04;74.42;99807.50;2625616;54;20038;-71
2021/10/23 03:01:24;;;;;;;20.05;5.22;;;;;;;8.99;74.87;99807.16;2625839;54;20023;-70
2021/10/23 03:03:55;;;;;;;8.05;4.43;;;;;;;8.93;75.09;99803.31;2625865;54;20038;-71
2021/10/23 03:06:28;;;;;;;8.30;5.45;;;;;;;8.93;74.91;99800.69;2626023;54;20026;-69
2021/10/23 03:08:57;;;;;;;9.95;4.80;;;;;;;8.89;75.12;99798.53;2626843;54;20018;-70
2021/10/23 03:11:27;;;;;;;11.35;4.45;;;;;;;8.89;75.41;99801.16;2626458;47;20038;-69
2021/10/23 03:13:58;;;;;;;7.40;4.90;;;;;;;8.87;75.12;99800.50;2628036;39;20403;-70
2021/10/23 03:16:28;;;;;;;11.48;5.47;;;;;;;8.89;75.45;99803.81;2626868;54;20103;-69
2021/10/23 03:18:58;;;;;;;9.32;5.03;;;;;;;8.90;75.31;99801.03;2627828;39;20457;-70
2021/10/23 03:21:30;;;;;;;17.23;5.43;;;;;;;8.83;75.31;99794.72;2626353;54;20041;-69
2021/10/23 03:23:59;;;;;;;11.13;7.20;;;;;;;8.86;75.30;99796.22;2626510;39;20447;-70
2021/10/23 03:26:29;;;;;;;21.60;11.20;;;;;;;8.85;75.07;99792.75;2626344;54;20018;-70
2021/10/23 03:29:00;;;;;;;15.55;6.72;;;;;;;8.79;75.03;99784.66;2626088;54;20023;-69
2021/10/23 03:31:30;;;;;;;19.58;6.80;;;;;;;8.77;75.16;99790.06;2626458;39;20422;-70
2021/10/23 03:34:00;;;;;;;13.80;6.88;;;;;;;8.79;75.33;99789.91;2626265;54;20042;-70
2021/10/23 03:36:32;;;;;;;11.20;6.00;;;;;;;8.77;75.56;99794.50;2626408;54;20050;-70
2021/10/23 03:39:01;;;;;;;12.52;5.90;;;;;;;8.75;75.27;99785.94;2626018;39;20372;-70
2021/10/23 03:41:31;;;;;;;10.20;5.80;;;;;;;8.73;75.59;99788.72;2626826;39;20453;-70
2021/10/23 03:44:03;;;;;;;14.32;5.97;;;;;;;8.73;75.11;99787.91;2626063;54;20032;-70
2021/10/23 03:46:32;;;;;;;13.40;5.50;;;;;;;8.69;75.49;99800.56;2626236;54;20031;-70
2021/10/23 03:49:02;;;;;;;12.30;6.70;;;;;;;8.69;75.49;99797.91;2627085;39;20706;-69
2021/10/23 03:51:34;;;;;;;9.48;5.43;;;;;;;8.64;75.76;99795.75;2626945;54;20022;-71
2021/10/23 03:54:04;;;;;;;8.65;5.53;;;;;;;8.63;75.34;99796.75;2625937;47;20044;-71
2021/10/23 03:56:34;;;;;;;14.98;7.18;;;;;;;8.66;75.63;99783.25;2625659;54;20022;-71
2021/10/23 03:59:04;;;;;;;10.75;6.43;;;;;;;8.64;75.43;99790.47;2625262;54;20089;-71
2021/10/23 04:01:33;;;;;;;18.52;7.30;;;;;;;8.63;75.80;99788.00;2625710;46;20030;-74
2021/10/23 04:04:03;;;;;;;13.35;5.93;;;;;;;8.60;75.40;99789.16;2625599;47;20110;-71
2021/10/23 04:06:35;;;;;;;9.75;6.07;;;;;;;8.63;75.73;99788.00;2625091;54;20565;-71
2021/10/23 04:09:06;;;;;;;11.48;6.45;;;;;;;8.59;75.71;99794.59;2624968;54;20045;-71
2021/10/23 04:11:35;;;;;;;12.38;6.40;;;;;;;8.57;75.54;99800.03;2625448;54;20038;-72
2021/10/23 04:14:06;;;;;;;12.18;6.40;;;;;;;8.61;75.44;99805.78;2625393;54;20030;-72
2021/10/23 04:16:36;;;;;;;11.25;5.63;;;;;;;8.58;75.71;99803.47;2625289;54;20033;-71
2021/10/23 04:19:06;;;;;;;12.70;6.22;;;;;;;8.58;75.77;99806.94;2625355;54;20027;-71
2021/10/23 04:21:42;;;;;;;10.73;5.80;;;;;;;8.57;75.50;99801.81;2625037;47;20034;-70
2021/10/23 04:24:12;;;;;;;11.82;6.10;;;;;;;8.58;75.63;99811.38;2624883;54;20124;-71
2021/10/23 04:26:42;;;;;;;16.05;6.43;;;;;;;8.58;75.77;99816.66;2625207;54;20530;-72
2021/10/23 04:29:12;;;;;;;11.27;5.80;;;;;;;8.60;76.10;99814.69;2626293;39;20623;-70
2021/10/23 04:31:41;;;;;;;11.80;6.70;;;;;;;8.63;75.94;99812.56;2625121;54;20061;-70
2021/10/23 04:34:11;;;;;;;16.00;6.95;;;;;;;8.63;75.84;99801.19;2624933;54;20033;-70
2021/10/23 04:36:43;;;;;;;10.55;6.32;;;;;;;8.61;75.75;99803.16;2624690;54;20030;-71
2021/10/23 04:39:15;;;;;;;14.43;6.55;;;;;;;8.61;75.64;99805.78;2624753;54;20039;-70
2021/10/23 04:41:45;;;;;;;13.73;6.97;;;;;;;8.59;75.58;99813.84;2621664;54;20026;-71
2021/10/23 04:44:14;;;;;;;12.05;6.47;;;;;;;8.59;75.41;99813.84;2621584;47;20027;-71
2021/10/23 04:46:44;;;;;;;10.05;5.90;;;;;;;8.58;75.21;99814.03;2621680;54;20037;-70
2021/10/23 04:49:14;;;;;;;13.25;6.00;;;;;;;8.56;75.69;99821.25;2621420;54;20038;-70
2021/10/23 04:51:46;;;;;;;12.77;6.30;;;;;;;8.54;75.27;99826.69;2621621;39;20411;-70
2021/10/23 04:54:15;;;;;;;9.68;5.88;;;;;;;8.51;75.41;99828.78;2620863;54;20022;-70
2021/10/23 04:56:45;;;;;;;12.73;6.30;;;;;;;8.43;75.75;99829.56;2621271;54;20045;-70
2021/10/23 04:59:14;;;;;;;12.93;6.47;;;;;;;8.39;75.97;99839.56;2620297;54;20030;-70
2021/10/23 05:01:44;;;;;;;15.00;7.25;;;;;;;8.36;75.73;99844.28;2621775;54;20114;-70
2021/10/23 05:04:14;;;;;;;14.68;6.65;;;;;;;8.34;75.81;99846.25;2623373;54;20259;-72
2021/10/23 05:06:46;;;;;;;16.15;7.53;;;;;;;8.26;75.98;99857.56;2621643;54;20887;-69
2021/10/23 05:09:16;;;;;;;13.20;5.95;;;;;;;8.28;76.04;99852.13;2617322;54;20037;-69
2021/10/23 05:11:45;;;;;;;12.45;7.15;;;;;;;8.24;75.99;99858.66;2618092;54;20019;-69
2021/10/23 05:14:15;;;;;;;10.95;7.43;;;;;;;8.24;76.30;99856.03;2617306;54;20069;-69
2021/10/23 05:16:44;;;;;;;12.88;7.10;;;;;;;8.22;76.15;99864.09;2618275;54;20046;-69
2021/10/23 05:19:14;;;;;;;12.43;7.35;;;;;;;8.23;76.38;99862.28;2617930;54;20281;-69
2021/10/23 05:21:46;;;;;;;14.38;8.00;;;;;;;8.28;75.98;99858.22;2618034;54;20030;-69
2021/10/23 05:24:16;;;;;;;12.75;7.40;;;;;;;8.32;76.23;99851.66;2617706;54;20538;-69
2021/10/23 05:26:46;;;;;;;13.52;7.68;;;;;;;8.30;76.38;99858.09;2617929;54;20039;-69
2021/10/23 05:29:16;;;;;;;13.13;7.75;;;;;;;8.29;75.79;99853.81;2618439;39;20461;-69
2021/10/23 05:31:46;;;;;;;14.77;7.88;;;;;;;8.21;76.27;99856.38;2617389;54;20077;-69
2021/10/23 05:34:15;;;;;;;12.23;7.20;;;;;;;8.22;76.67;99855.38;2619029;39;20453;-69
2021/10/23 05:36:47;;;;;;;12.00;7.38;;;;;;;8.25;76.13;99860.34;2618767;54;20043;-69
2021/10/23 05:39:17;;;;;;;15.02;8.55;;;;;;;8.27;76.41;99872.38;2618634;54;20030;-69
2021/10/23 05:41:47;;;;;;;11.98;7.88;;;;;;;8.30;75.76;99868.63;2618759;54;20545;-69
2021/10/23 05:44:16;;;;;;;12.90;7.90;;;;;;;8.32;75.91;99871.91;2618620;54;20082;-69
2021/10/23 05:46:46;;;;;;;14.98;8.20;;;;;;;8.23;76.11;99865.75;2618241;46;20042;-70
2021/10/23 05:49:16;;;;;;;13.20;7.43;;;;;;;8.21;76.47;99866.91;2618786;54;20565;-67
2021/10/23 05:51:48;;;;;;;13.65;7.25;;;;;;;8.21;76.01;99864.25;2618332;54;20039;-68
2021/10/23 05:54:18;;;;;;;13.52;7.70;;;;;;;8.19;76.58;99867.84;2618611;54;20546;-69
2021/10/23 05:56:48;;;;;;;15.13;8.18;;;;;;;8.16;76.60;99883.13;2619515;54;20038;-68
2021/10/23 05:59:17;;;;;;;15.00;6.72;;;;;;;8.14;76.17;99866.66;2618647;54;20027;-68
2021/10/23 06:01:49;;;;;;;11.00;7.07;;;;;;;8.13;76.27;99872.91;2622602;47;20041;-68
2021/10/23 06:04:19;;;;;;;12.02;5.65;;;;;;;8.15;76.41;99873.59;2625384;54;20030;-68
2021/10/23 06:06:51;;;;;;;12.63;7.00;;;;;;;8.12;75.98;99874.72;2625505;54;20050;-68
2021/10/23 06:09:21;;;;;;;16.70;7.50;;;;;;;8.04;76.02;99874.66;2625294;54;20025;-68
2021/10/23 06:11:50;;;;;;;12.52;6.60;;;;;;;8.04;76.52;99876.44;2626048;54;20038;-68
2021/10/23 06:14:20;;;;;;;15.20;7.22;;;;;;;8.01;76.42;99869.69;2625384;54;20150;-68
2021/10/23 06:16:50;;;;;;;13.70;7.80;;;;;;;7.91;76.45;99868.91;2625235;54;20030;-68
2021/10/23 06:19:19;;;;;;;15.90;8.02;;;;;;;7.90;76.58;99862.00;2625247;54;20026;-68
2021/10/23 06:21:51;;;;;;;11.75;7.95;;;;;;;7.89;76.34;99861.16;2625307;54;20066;-68
2021/10/23 06:24:21;;;;;;;18.25;9.18;;;;;;;7.84;76.76;99863.44;2625021;54;20058;-68
2021/10/23 06:26:51;;;;;;;16.63;8.88;;;;;;;7.85;76.65;99857.19;2623531;54;20037;-68
2021/10/23 06:29:20;;;;;;;14.35;8.93;;;;;;;7.77;76.17;99858.91;2624674;54;20759;-69
2021/10/23 06:31:50;;;;;;;13.77;9.88;;;;;;;7.75;76.42;99858.22;2622992;47;20031;-69
2021/10/23 06:34:20;;;;;;;15.02;9.60;;;;;;;7.72;76.58;99863.78;2619751;54;20035;-69
2021/10/23 06:36:52;;;;;;;13.75;8.88;;;;;;;7.73;76.53;99865.44;2619387;54;20035;-69
2021/10/23 06:39:22;;;;;;;15.13;8.85;;;;;;;7.70;76.71;99862.13;2618787;39;20414;-69
2021/10/23 06:41:51;;;;;;;12.23;7.40;;;;;;;7.74;76.60;99880.25;2619366;39;20449;-69
2021/10/23 06:44:21;;;;;;;13.13;8.85;;;;;;;7.78;76.53;99892.97;2617923;46;20559;-69
2021/10/23 06:46:51;;;;;;;12.95;9.05;;;;;;;7.78;76.57;99900.03;2618626;39;20442;-69
2021/10/23 06:49:20;;;;;;;11.38;9.18;;;;;;;7.80;76.34;99903.38;2618633;54;20030;-69
2021/10/23 06:51:52;;;;;;;12.00;8.88;;;;;;;7.88;76.57;99914.81;2618537;54;20034;-69
2021/10/23 06:54:22;;;;;;;14.32;9.60;;;;;;;7.97;76.90;99913.09;2618745;54;20039;-69
2021/10/23 06:56:52;;;;;;;12.52;9.30;;;;;;;8.01;76.86;99922.34;2619303;54;20085;-69
2021/10/23 06:59:21;;;;;;;17.92;11.07;;;;;;;8.08;76.68;99936.56;2619467;54;20098;-69
2021/10/23 07:01:51;;;;;;;12.07;9.80;;;;;;;8.07;76.84;99927.00;2619178;54;20027;-69
2021/10/23 07:04:21;;;;;;;13.77;8.98;;;;;;;8.11;76.81;99935.44;2618968;54;20022;-69
2021/10/23 07:06:53;;;;;;;13.65;9.15;;;;;;;8.10;76.78;99949.59;2618450;54;20560;-69
2021/10/23 07:09:22;;;;;;;12.65;9.48;;;;;;;8.08;76.70;99964.69;2618452;54;20030;-69
2021/10/23 07:11:52;;;;;;;11.82;9.15;;;;;;;8.11;77.01;99967.03;2619215;39;20433;-69
2021/10/23 07:14:21;;;;;;;12.07;9.15;;;;;;;8.15;76.59;99966.59;2618448;54;20030;-69
2021/10/23 07:16:51;;;;;;;15.88;11.18;;;;;;;8.19;76.48;99961.84;2618657;54;20038;-69
2021/10/23 07:19:21;;;;;;;13.63;9.85;;;;;;;8.19;76.51;99954.78;2619002;54;20027;-69
2021/10/23 07:21:54;;;;;;;13.60;10.88;;;;;;;8.14;76.36;99964.13;2621523;54;20027;-69
2021/10/23 07:24:23;;;;;;;14.30;10.45;;;;;;;8.18;76.74;99968.09;2622079;54;20038;-69
2021/10/23 07:26:53;;;;;;;14.45;10.20;;;;;;;8.21;76.51;99970.47;2621450;47;20042;-69
2021/10/23 07:29:23;;;;;;;17.35;11.02;;;;;;;8.27;76.42;99972.47;2625322;39;20409;-69
2021/10/23 07:31:53;;;;;;;14.68;9.93;;;;;;;8.36;76.99;99976.03;2622205;54;20069;-69
2021/10/23 07:34:22;;;;;;;11.95;9.45;;;;;;;8.44;76.68;99978.75;2621878;54;20593;-68
2021/10/23 07:36:55;;;;;;;15.70;9.60;;;;;;;8.55;76.33;99977.72;2622345;54;20053;-69
2021/10/23 07:39:24;;;;;;;13.70;10.13;;;;;;;8.70;76.09;99973.59;2622159;54;20041;-68
2021/10/23 07:41:54;;;;;;;13.77;9.27;;;;;;;8.73;75.86;99978.53;2622448;54;20034;-68
2021/10/23 07:44:24;;;;;;;13.93;10.40;;;;;;;8.75;75.77;99992.41;2621542;54;20546;-68
2021/10/23 07:46:53;;;;;;;13.50;9.82;;;;;;;8.78;75.03;99991.28;2622161;39;20454;-68
2021/10/23 07:49:23;;;;;;;10.85;8.52;;;;;;;8.66;74.90;99993.31;2622511;39;20488;-68
2021/10/23 07:51:55;;;;;;;12.20;7.80;;;;;;;8.55;75.32;100001.44;2622363;46;20069;-69
2021/10/23 07:54:25;;;;;;;8.13;6.28;;;;;;;8.58;75.74;100006.44;2620864;54;20034;-69
2021/10/23 07:56:57;;;;;;;9.50;6.72;;;;;;;8.66;75.70;100006.50;2618263;54;20154;-68
2021/10/23 07:59:27;;;;;;;7.57;6.78;;;;;;;8.76;75.13;100006.41;2618649;47;20030;-68
2021/10/23 08:01:59;;;;;;;8.15;7.15;;;;;;;8.85;75.12;100006.31;2617863;47;20018;-69
2021/10/23 08:04:30;;;;;;;8.77;6.90;;;;;;;9.07;75.07;100005.03;2618521;54;20034;-68
2021/10/23 08:07:03;;;;;;;8.38;7.20;;;;;;;9.22;74.49;100010.56;2618704;54;20045;-69
2021/10/23 08:09:34;;;;;;;10.85;7.63;;;;;;;9.32;74.23;100008.66;2618194;47;20033;-68
2021/10/23 08:12:05;;;;;;;9.00;6.82;;;;;;;9.41;74.12;100005.09;2618143;54;20077;-68
2021/10/23 08:14:36;;;;;;;8.77;7.45;;;;;;;9.45;73.21;100012.69;2617723;54;20081;-68
2021/10/23 08:17:06;;;;;;;8.63;7.65;;;;;;;9.27;72.91;100005.66;2618024;54;20042;-68
2021/10/23 08:19:37;;;;;;;10.40;7.95;;;;;;;9.21;72.91;100021.28;2619903;54;20037;-69
2021/10/23 08:22:09;;;;;;;12.90;8.00;;;;;;;9.27;73.26;100016.22;2620693;46;20050;-69
2021/10/23 08:24:40;;;;;;;9.20;7.13;;;;;;;9.35;73.73;100024.19;2620340;47;20541;-69
2021/10/23 08:27:10;;;;;;;10.40;7.82;;;;;;;9.51;73.70;100028.75;2620714;54;20030;-69
2021/10/23 08:29:40;;;;;;;9.50;7.07;;;;;;;9.60;73.83;100033.09;2620734;54;20055;-69
2021/10/23 08:32:10;;;;;;;11.57;8.40;;;;;;;9.72;73.48;100031.03;2620889;47;20038;-68
2021/10/23 08:34:40;;;;;;;11.20;8.30;;;;;;;9.81;73.33;100030.06;2618090;54;20031;-68
2021/10/23 08:37:12;;;;;;;16.60;8.20;;;;;;;9.95;73.16;100019.88;2618990;54;20034;-68
2021/10/23 08:39:42;;;;;;;8.77;7.30;;;;;;;10.06;72.70;100031.00;2619840;54;20542;-68
2021/10/23 08:42:12;;;;;;;7.88;6.65;;;;;;;10.12;72.35;100034.81;2619356;54;20035;-68
2021/10/23 08:44:44;;;;;;;9.13;6.25;;;;;;;10.06;72.00;100041.56;2621023;39;20217;-69
2021/10/23 08:47:16;;;;;;;8.02;6.25;;;;;;;10.04;72.40;100046.19;2621601;54;20030;-69
2021/10/23 08:49:46;;;;;;;9.73;6.65;;;;;;;9.97;71.82;100046.97;2621387;54;20023;-70
2021/10/23 08:52:19;;;;;;;10.75;6.90;;;;;;;10.06;72.26;100046.84;2621396;54;20038;-68
2021/10/23 08:54:48;;;;;;;10.98;7.63;;;;;;;10.09;71.98;100045.72;2620817;54;20042;-68
2021/10/23 08:57:18;;;;;;;10.55;7.30;;;;;;;10.15;71.92;100045.88;2620728;54;20022;-69
2021/10/23 08:59:47;;;;;;;15.82;8.45;;;;;;;10.27;71.64;100048.28;2619931;54;20033;-69
2021/10/23 09:02:17;;;;;;;8.68;7.35;;;;;;;10.41;71.99;100055.59;2618757;47;20053;-68
2021/10/23 09:04:47;;;;;;;14.85;13.35;;;;;;;10.49;71.33;100060.06;2619382;54;20035;-68
2021/10/23 09:07:21;;;;;;;11.15;7.35;;;;;;;10.37;70.07;100068.31;2619484;54;20054;-68
2021/10/23 09:09:54;;;;;;;8.68;7.75;;;;;;;10.32;71.39;100070.59;2619700;54;20027;-68
2021/10/23 09:12:25;;;;;;;10.43;8.13;;;;;;;10.40;71.31;100075.06;2620685;54;20046;-68
2021/10/23 09:15:03;;;;;;;13.20;10.13;;;;;;;10.33;70.42;100072.25;2620430;47;20851;-69
2021/10/23 09:17:35;;;;;;;12.27;9.63;;;;;;;10.33;70.33;100072.25;2619320;54;20057;-68
2021/10/23 09:20:10;;;;;;;12.00;7.40;;;;;;;10.39;71.17;100068.97;2619777;54;20023;-68
2021/10/23 09:22:44;;;;;;;10.57;6.72;;;;;;;10.48;71.01;100067.16;2620453;54;20546;-68
2021/10/23 09:25:19;;;;;;;7.82;6.72;;;;;;;10.59;70.99;100074.00;2620865;54;20133;-67
2021/10/23 09:28:09;;;;;;;13.65;10.20;;;;;;;10.79;70.54;100074.53;2619055;47;20030;-67
2021/10/23 09:30:41;;;;;;;9.13;7.53;;;;;;;10.81;69.94;100075.19;2618355;46;20033;-68
2021/10/23 09:33:14;;;;;;;8.75;7.68;;;;;;;10.81;70.24;100083.13;2618741;54;20033;-68
2021/10/23 09:35:45;;;;;;;10.25;7.13;;;;;;;10.87;69.93;100077.19;2618634;54;20038;-67
2021/10/23 09:38:19;;;;;;;9.65;7.10;;;;;;;10.88;69.78;100069.06;2618740;54;20049;-68
2021/10/23 09:40:51;;;;;;;10.05;6.93;;;;;;;10.88;69.51;100065.59;2618594;54;20034;-68
2021/10/23 09:43:22;;;;;;;9.65;7.00;;;;;;;10.84;69.29;100073.03;2617977;47;20038;-68
2021/10/23 09:46:10;;;;;;;9.07;6.57;;;;;;;10.80;68.82;100074.34;2618670;54;20548;-68
2021/10/23 09:48:42;;;;;;;8.85;6.30;;;;;;;10.86;69.11;100071.06;2619270;54;20035;-67
2021/10/23 09:51:16;;;;;;;13.38;7.47;;;;;;;11.08;68.67;100077.53;2618835;54;20038;-68
2021/10/23 09:53:50;;;;;;;8.32;6.30;;;;;;;11.23;68.26;100066.31;2618872;54;20026;-68
2021/10/23 09:56:25;;;;;;;10.43;8.20;;;;;;;11.30;68.17;100072.56;2618678;54;20070;-68
2021/10/23 09:58:57;;;;;;;7.70;6.63;;;;;;;11.39;68.05;100074.22;2618811;54;20035;-68
2021/10/23 10:01:28;;;;;;;7.95;6.22;;;;;;;11.44;67.79;100060.50;2618480;54;20090;-68
2021/10/23 10:04:00;;;;;;;9.32;7.43;;;;;;;11.39;67.63;100063.66;2618379;54;20058;-68
2021/10/23 10:06:31;;;;;;;11.77;7.40;;;;;;;11.50;67.55;100063.28;2618341;54;20033;-67
2021/10/23 10:09:04;;;;;;;9.52;7.40;;;;;;;11.68;67.60;100063.09;2618352;54;20026;-67
2021/10/23 10:11:34;;;;;;;12.65;7.25;;;;;;;11.80;67.05;100061.75;2618469;54;20162;-67
2021/10/23 10:14:04;;;;;;;9.35;5.72;;;;;;;11.76;66.07;100070.19;2618204;54;20038;-67
2021/10/23 10:16:34;;;;;;;8.05;5.88;;;;;;;11.65;66.40;100072.19;2618405;54;20038;-67
2021/10/23 10:19:04;;;;;;;6.97;5.15;;;;;;;11.67;66.27;100072.00;2618350;54;20026;-67
2021/10/23 10:21:36;;;;;;;7.35;5.55;;;;;;;11.73;65.99;100074.00;2617857;54;20082;-67
2021/10/23 10:24:23;;;;;;;8.38;5.65;;;;;;;11.79;64.80;100075.13;2618294;54;20049;-67
2021/10/23 10:27:00;;;;;;;7.18;4.70;;;;;;;11.67;65.43;100066.72;2618507;54;20026;-67
2021/10/23 10:29:39;;;;;;;6.85;4.93;;;;;;;11.81;65.16;100066.03;2618567;54;20038;-67
2021/10/23 10:32:18;;;;;;;6.75;4.68;;;;;;;11.96;65.15;100073.31;2618357;39;20693;-67
2021/10/23 10:38:13;;;;;;;4.82;4.30;;;;;;;12.25;63.06;100062.94;2618314;54;20045;-67
2021/10/23 10:42:41;;;;;;;4.32;3.92;;;;;;;12.18;63.14;100058.50;2618645;54;20029;-67
2021/10/23 10:44:10;;;;;;;5.88;4.65;;;;;;;12.22;62.46;100060.63;2618334;54;20037;-68
2021/10/23 10:47:15;;;;;;;6.03;4.22;;;;;;;12.31;63.22;100059.59;2618522;54;20035;-68
2021/10/23 10:49:53;;;;;;;5.45;4.05;;;;;;;12.28;63.09;100051.97;2618304;54;20044;-68
2021/10/23 10:52:54;;;;;;;4.07;3.65;;;;;;;12.17;62.34;100057.69;2618407;54;20057;-69
2021/10/23 10:55:25;;;;;;;6.93;4.15;;;;;;;12.14;62.76;100055.34;2618398;54;20030;-68
2021/10/23 11:09:42;;;;;;;5.20;4.18;;;;;;;12.26;62.69;100046.03;2622640;46;20038;-70
2021/10/23 11:12:16;;;;;;;6.55;3.72;;;;;;;12.30;62.13;100043.88;2624904;54;20053;-70
2021/10/23 11:14:46;;;;;;;5.72;4.28;;;;;;;12.34;61.95;100040.69;2624023;54;20055;-71
2021/10/23 11:17:21;;;;;;;5.82;3.50;;;;;;;12.31;61.04;100035.72;2625126;54;20041;-70
2021/10/23 11:19:53;;;;;;;6.50;3.40;;;;;;;12.34;60.85;100038.03;2625121;54;20577;-71
2021/10/23 11:22:27;;;;;;;3.65;3.22;;;;;;;12.48;61.01;100039.09;2625160;39;20628;-71
2021/10/23 11:25:03;;;;;;;;;;;;;;;12.53;60.08;100044.75;2624889;47;20030;-70
2021/10/23 11:27:44;;;;;;;6.97;3.33;;;;;;;12.68;59.66;100043.97;2625251;54;19957;-70
2021/10/23 11:30:17;;;;;;;6.40;3.97;;;;;;;12.79;59.98;100040.91;2625298;54;20023;-71
2021/10/23 11:32:49;;;;;;;4.72;3.20;;;;;;;12.85;59.27;100041.00;2624445;54;20037;-71
2021/10/23 11:35:18;;;;;;;4.85;2.90;;;;;;;13.00;59.03;100032.31;2622456;54;20030;-71
2021/10/23 11:37:54;;;;;;;3.40;2.75;;;;;;;13.14;58.06;100028.84;2626901;39;20512;-70
2021/10/23 11:40:32;;;;;;;4.35;2.65;;;;;;;13.30;57.84;100027.91;2625261;54;20034;-71
2021/10/23 11:43:02;;;;;;;4.07;2.70;;;;;;;13.46;57.36;100025.09;2624814;54;20038;-71
2021/10/23 11:45:33;;;;;;;5.05;2.60;;;;;;;13.63;56.59;100021.28;2625219;39;20450;-70
2021/10/23 11:48:04;;;;;;;3.88;2.35;;;;;;;13.76;55.46;100027.78;2625625;54;20054;-71
2021/10/23 11:50:36;;;;;;;3.22;2.42;;;;;;;13.91;55.43;100022.47;2624237;54;20094;-70
2021/10/23 11:53:12;;;;;;;4.93;2.08;;;;;;;14.11;54.70;100018.22;2624623;54;20049;-69
2021/10/23 11:55:47;;;;;;;3.88;2.80;;;;;;;14.25;53.51;100014.72;2624485;54;20034;-70
2021/10/23 11:58:19;;;;;;;3.25;2.72;;;;;;;14.22;53.44;100011.59;2624778;54;20090;-71
2021/10/23 12:00:51;;;;;;;2.72;2.33;;;;;;;14.20;53.10;100014.44;2624396;54;20581;-71
2021/10/23 12:03:30;;;;;;;3.45;2.08;;;;;;;14.19;53.04;100018.13;2624562;31;20515;-71
2021/10/23 12:06:00;;;;;;;3.47;2.40;;;;;;;14.17;53.47;100014.84;2624299;54;20661;-71